createdAt,value
2023-04-14T00:02:43.614Z,100781.75
2023-04-14T00:08:05.721Z,100785.03
2023-04-14T00:13:27.670Z,100787.19
2023-04-14T00:18:49.808Z,100787.47
2023-04-14T00:24:11.617Z,100796.06
2023-04-14T00:29:33.510Z,100797.38
2023-04-14T00:34:57.245Z,100803.19
2023-04-14T00:40:19.251Z,100794.28
2023-04-14T00:45:46.213Z,100782.34
2023-04-14T00:51:09.437Z,100797.53
2023-04-14T00:56:31.938Z,100799.75
2023-04-14T01:01:54.257Z,100795.28
2023-04-14T01:07:16.165Z,100788.28
2023-04-14T01:13:06.564Z,100795.78
2023-04-14T01:18:35.105Z,100809.06
2023-04-14T01:24:23.505Z,100807.38
2023-04-14T01:30:11.336Z,100797.63
2023-04-14T01:35:45.612Z,100793.19
2023-04-14T01:41:09.848Z,100797.31
2023-04-14T01:46:34.546Z,100796.72
2023-04-14T01:51:57.142Z,100800.56
2023-04-14T01:57:23.171Z,100797.19
2023-04-14T02:02:48.469Z,100797.19
2023-04-14T02:08:13.471Z,100806.59
2023-04-14T02:13:36.284Z,100807.09
2023-04-14T02:18:59.683Z,100806.25
2023-04-14T02:24:25.318Z,100796.28
2023-04-14T02:29:53.850Z,100801.81
2023-04-14T02:35:19.108Z,100801.22
2023-04-14T02:40:42.687Z,100790.63
2023-04-14T02:46:06.717Z,100794.25
2023-04-14T02:51:29.795Z,100793.66
2023-04-14T02:56:52.405Z,100792.84
2023-04-14T03:02:16.495Z,100809.69
2023-04-14T03:07:39.395Z,100817.41
2023-04-14T03:13:03.882Z,100823.19
2023-04-14T03:18:27.353Z,100815.16
2023-04-14T03:23:53.118Z,100812.38
2023-04-14T03:29:16.780Z,100809.00
2023-04-14T03:34:43.260Z,100813.97
2023-04-14T03:40:08.248Z,100826.13
2023-04-14T03:45:30.190Z,100825.53
2023-04-14T03:50:55.289Z,100830.25
2023-04-14T03:56:18.077Z,100825.78
2023-04-14T04:01:41.796Z,100829.91
2023-04-14T04:07:05.224Z,100832.66
2023-04-14T04:12:28.394Z,100831.22
2023-04-14T04:17:51.727Z,100835.94
2023-04-14T04:23:17.338Z,100826.16
2023-04-14T04:28:40.693Z,100829.63
2023-04-14T04:34:04.261Z,100823.03
2023-04-14T04:39:26.534Z,100822.44
2023-04-14T04:44:48.348Z,100831.84
2023-04-14T04:50:11.101Z,100822.69
2023-04-14T04:55:33.000Z,100826.78
2023-04-14T05:00:54.982Z,100821.25
2023-04-14T05:06:17.002Z,100824.28
2023-04-14T05:11:38.944Z,100821.06
2023-04-14T05:17:00.733Z,100822.56
2023-04-14T05:22:22.582Z,100814.03
2023-04-14T05:27:44.525Z,100815.97
2023-04-14T05:33:06.693Z,100821.06
2023-04-14T05:38:28.677Z,100826.13
2023-04-14T05:43:51.017Z,100829.47
2023-04-14T05:49:12.864Z,100833.34
2023-04-14T05:54:34.684Z,100824.09
2023-04-14T05:59:58.201Z,100827.91
2023-04-14T06:05:20.382Z,100831.94
2023-04-14T06:10:42.283Z,100835.72
2023-04-14T06:16:04.273Z,100836.72
2023-04-14T06:21:26.305Z,100829.22
2023-04-14T06:26:48.172Z,100818.41
2023-04-14T06:32:10.206Z,100818.63
2023-04-14T06:37:32.567Z,100815.34
2023-04-14T06:42:54.492Z,100807.16
2023-04-14T06:48:16.385Z,100804.97
2023-04-14T06:53:39.128Z,100803.69
2023-04-14T06:59:01.086Z,100798.88
2023-04-14T07:04:23.332Z,100800.47
2023-04-14T07:09:45.283Z,100801.78
2023-04-14T07:15:08.045Z,100791.31
2023-04-14T07:20:30.585Z,100788.47
2023-04-14T07:25:57.432Z,100788.47
2023-04-14T07:31:19.335Z,100793.06
2023-04-14T07:36:41.345Z,100781.72
2023-04-14T07:42:03.283Z,100774.28
2023-04-14T07:47:25.138Z,100770.03
2023-04-14T07:52:46.975Z,100772.84
2023-04-14T07:58:08.849Z,100768.63
2023-04-14T08:03:32.459Z,100768.47
2023-04-14T08:08:54.612Z,100769.13
2023-04-14T08:14:16.532Z,100769.75
2023-04-14T08:19:38.382Z,100767.22
2023-04-14T08:25:00.233Z,100763.31
2023-04-14T08:30:22.435Z,100763.00
2023-04-14T08:35:44.378Z,100767.13
2023-04-14T08:41:08.969Z,100755.09
2023-04-14T08:46:31.677Z,100745.59
2023-04-14T08:51:55.105Z,100744.97
2023-04-14T08:57:19.950Z,100741.31
2023-04-14T09:02:42.878Z,100735.16
2023-04-14T09:08:05.061Z,100735.97
2023-04-14T09:13:28.761Z,100724.28
2023-04-14T09:18:52.074Z,100721.50
2023-04-14T09:24:17.250Z,100716.03
2023-04-14T09:29:39.681Z,100716.41
2023-04-14T09:35:01.726Z,100718.50
2023-04-14T09:40:32.755Z,100712.72
2023-04-14T09:45:55.727Z,100715.28
2023-04-14T09:51:21.320Z,100710.28
2023-04-14T09:56:46.286Z,100701.41
2023-04-14T10:02:09.368Z,100691.38
2023-04-14T10:07:31.665Z,100699.47
2023-04-14T10:12:54.351Z,100694.16
2023-04-14T10:18:16.438Z,100682.44
2023-04-14T10:23:39.705Z,100678.84
2023-04-14T10:29:03.119Z,100672.13
2023-04-14T10:34:26.193Z,100656.50
2023-04-14T10:40:07.444Z,100660.44
2023-04-14T10:45:29.468Z,100663.78
2023-04-14T10:50:55.845Z,100659.34
2023-04-14T10:56:21.859Z,100648.16
2023-04-14T11:01:44.281Z,100634.25
2023-04-14T11:07:09.833Z,100645.66
2023-04-14T11:12:31.887Z,100642.56
2023-04-14T11:17:54.617Z,100639.22
2023-04-14T11:23:16.845Z,100642.28
2023-04-14T11:28:41.162Z,100634.22
2023-04-14T11:34:06.991Z,100638.38
2023-04-14T11:39:30.223Z,100629.19
2023-04-14T11:45:00.401Z,100621.09
2023-04-14T11:50:22.408Z,100623.63
2023-04-14T11:55:45.388Z,100621.94
2023-04-14T12:01:07.355Z,100614.41
2023-04-14T12:06:29.363Z,100606.06
2023-04-14T12:11:55.979Z,100603.00
2023-04-14T12:17:20.497Z,100607.44
2023-04-14T12:22:42.393Z,100593.78
2023-04-14T12:28:07.073Z,100605.78
2023-04-14T12:33:29.943Z,100606.31
2023-04-14T12:38:51.830Z,100597.97
2023-04-14T12:44:16.057Z,100587.41
2023-04-14T12:49:39.090Z,100597.69
2023-04-14T12:55:01.008Z,100587.97
2023-04-14T13:00:24.448Z,100581.84
2023-04-14T13:05:46.466Z,100587.41
2023-04-14T13:11:08.320Z,100579.06
2023-04-14T13:16:30.165Z,100577.38
2023-04-14T13:21:52.122Z,100576.81
2023-04-14T13:27:13.930Z,100574.03
2023-04-14T13:32:36.114Z,100575.69
2023-04-14T13:37:58.734Z,100563.44
2023-04-14T13:43:20.622Z,100558.69
2023-04-14T13:48:45.494Z,100563.97
2023-04-14T13:54:07.322Z,100560.91
2023-04-14T13:59:29.232Z,100550.06
2023-04-14T14:04:51.094Z,100547.00
2023-04-14T14:10:12.946Z,100538.38
2023-04-14T14:15:34.846Z,100534.47
2023-04-14T14:20:56.799Z,100526.38
2023-04-14T14:26:18.672Z,100520.25
2023-04-14T14:31:40.648Z,100519.44
2023-04-14T14:37:02.549Z,100522.50
2023-04-14T14:42:24.385Z,100518.88
2023-04-14T14:47:46.519Z,100514.69
2023-04-14T14:53:08.336Z,100509.13
2023-04-14T14:58:30.423Z,100509.97
2023-04-14T15:03:54.740Z,100507.69
2023-04-14T15:09:16.824Z,100512.69
2023-04-14T15:14:38.684Z,100512.09
2023-04-14T15:20:05.295Z,100495.97
2023-04-14T15:25:27.169Z,100499.31
2023-04-14T15:30:49.255Z,100494.00
2023-04-14T15:36:11.509Z,100494.56
2023-04-14T15:41:33.380Z,100502.06
2023-04-14T15:46:55.415Z,100489.28
2023-04-14T15:52:17.249Z,100498.16
2023-04-14T15:57:39.125Z,100494.25
2023-04-14T16:03:02.330Z,100491.47
2023-04-14T16:08:24.447Z,100492.59
2023-04-14T16:13:46.381Z,100490.66
2023-04-14T16:19:08.578Z,100489.28
2023-04-14T16:24:31.009Z,100479.00
2023-04-14T16:29:53.129Z,100482.59
2023-04-14T16:35:15.073Z,100487.59
2023-04-14T16:40:37.675Z,100488.69
2023-04-14T16:46:03.996Z,100491.78
2023-04-14T16:51:27.678Z,100492.59
2023-04-14T16:56:49.582Z,100492.31
2023-04-14T17:02:11.571Z,100491.47
2023-04-14T17:07:33.893Z,100493.41
2023-04-14T17:12:55.761Z,100496.72
2023-04-14T17:18:17.725Z,100490.28
2023-04-14T17:23:39.636Z,100509.47
2023-04-14T17:29:01.650Z,100507.47
2023-04-14T17:34:24.227Z,100506.38
2023-04-14T17:39:46.929Z,100512.41
2023-04-14T17:45:09.381Z,100512.69
2023-04-14T17:50:31.349Z,100512.16
2023-04-14T17:55:53.564Z,100521.34
2023-04-14T18:01:40.939Z,100518.34
2023-04-14T18:07:02.913Z,100518.66
2023-04-14T18:12:25.508Z,100527.31
2023-04-14T18:17:47.376Z,100530.41
2023-04-14T18:23:09.414Z,100524.00
2023-04-14T18:28:31.794Z,100527.94
2023-04-14T18:33:53.776Z,100527.66
2023-04-14T18:39:16.623Z,100523.19
2023-04-14T18:44:38.666Z,100533.78
2023-04-14T18:50:00.646Z,100546.84
2023-04-14T18:55:22.574Z,100549.88
2023-04-14T19:00:47.483Z,100563.75
2023-04-14T19:06:09.296Z,100560.38
2023-04-14T19:11:36.110Z,100570.63
2023-04-14T19:16:58.311Z,100574.19
2023-04-14T19:22:20.390Z,100581.44
2023-04-14T19:27:43.391Z,100585.00
2023-04-14T19:33:05.455Z,100582.44
2023-04-14T19:38:27.720Z,100586.84
2023-04-14T19:43:49.646Z,100597.97
2023-04-14T19:49:11.908Z,100597.41
2023-04-14T19:54:34.147Z,100597.44
2023-04-14T19:59:55.941Z,100596.41
2023-04-14T20:05:18.132Z,100593.19
2023-04-14T20:10:40.404Z,100597.09
2023-04-14T20:16:02.371Z,100586.84
2023-04-14T20:21:24.408Z,100592.69
2023-04-14T20:26:46.810Z,100586.03
2023-04-14T20:32:09.666Z,100581.84
2023-04-14T20:37:32.313Z,100597.69
2023-04-14T20:42:54.706Z,100583.25
2023-04-14T20:48:16.542Z,100591.00
2023-04-14T20:53:38.536Z,100586.25
2023-04-14T20:59:00.493Z,100586.22
2023-04-14T21:04:22.650Z,100585.94
2023-04-14T21:09:45.046Z,100592.03
2023-04-14T21:15:47.421Z,100587.00
2023-04-14T21:20:49.319Z,100578.38
2023-04-14T21:26:12.149Z,100580.56
2023-04-14T21:31:34.014Z,100578.03
2023-04-14T21:36:57.684Z,100580.25
2023-04-14T21:42:19.457Z,100582.44
2023-04-14T21:47:41.635Z,100587.97
2023-04-14T21:53:04.370Z,100591.81
2023-04-14T21:58:26.275Z,100581.25
2023-04-14T22:03:48.308Z,100582.88
2023-04-14T22:09:10.488Z,100584.53
2023-04-14T22:14:32.346Z,100588.94
2023-04-14T22:19:54.104Z,100585.84
2023-04-14T22:25:16.997Z,100593.03
2023-04-14T22:30:38.951Z,100597.44
2023-04-14T22:36:03.802Z,100591.59
2023-04-14T22:41:25.677Z,100590.47
2023-04-14T22:46:47.490Z,100584.31
2023-04-14T22:52:09.248Z,100587.63
2023-04-14T22:57:31.254Z,100590.94
2023-04-14T23:02:53.973Z,100587.56
2023-04-14T23:08:16.027Z,100582.81
2023-04-14T23:13:37.811Z,100583.09
2023-04-14T23:18:59.880Z,100584.19
2023-04-14T23:24:22.620Z,100584.19
2023-04-14T23:29:44.460Z,100594.19
2023-04-14T23:35:07.207Z,100596.41
2023-04-14T23:40:31.249Z,100594.69
2023-04-14T23:45:53.205Z,100596.31
2023-04-14T23:51:19.208Z,100604.09
2023-04-14T23:56:43.803Z,100596.28
